Time;durP1;ratioP1;P1;durP2;ratioP2;P2;SDS_P1;SDS_P2;PMS_P1;PMS_P2;Temp;Humidity;BMP_temperature;BMP_pressure;BME280_temperature;BME280_humidity;BME280_pressure;Samples;Min_cycle;Max_cycle;Signal;HPM_P1;HPM_P2
2023/11/25 00:01:32;;;;;;;0.10;0.10;;;;;;;;;;5054856;28;20056;-95
2023/11/25 00:03:58;;;;;;;0.10;0.10;;;;;;;;;;5059463;28;20021;-95
2023/11/25 00:06:24;;;;;;;0.10;0.10;;;;;;;;;;5059149;28;20033;-96
2023/11/25 00:08:50;;;;;;;0.10;0.10;;;;;;;;;;5050566;28;20034;-94
2023/11/25 00:11:17;;;;;;;0.00;0.00;;;;;;;;;;5052420;28;20029;-95
2023/11/25 00:13:43;;;;;;;0.00;0.00;;;;;;;;;;5049007;28;20006;-93
2023/11/25 00:16:09;;;;;;;0.00;0.00;;;;;;;;;;5046259;28;20046;-94
2023/11/25 00:18:35;;;;;;;0.00;0.00;;;;;;;;;;5050011;28;20017;-96
2023/11/25 00:21:01;;;;;;;0.05;0.05;;;;;;;;;;5055938;28;20014;-96
2023/11/25 00:23:27;;;;;;;0.00;0.00;;;;;;;;;;5047557;28;20041;-96
2023/11/25 00:25:54;;;;;;;0.00;0.00;;;;;;;;;;5056679;28;20020;-93
2023/11/25 00:28:20;;;;;;;0.10;0.10;;;;;;;;;;5053484;28;20082;-95
2023/11/25 00:30:46;;;;;;;0.10;0.10;;;;;;;;;;5051284;28;20025;-94
2023/11/25 00:33:13;;;;;;;0.10;0.10;;;;;;;;;;5042296;28;20034;-95
2023/11/25 00:35:40;;;;;;;0.00;0.00;;;;;;;;;;5051653;28;20097;-94
2023/11/25 00:38:08;;;;;;;0.00;0.00;;;;;;;;;;5064050;28;20060;-96
2023/11/25 00:40:34;;;;;;;0.00;0.00;;;1.30;99.90;;;;;;5036193;28;20036;-95
2023/11/25 00:43:00;;;;;;;0.05;0.05;;;;;;;;;;5046159;28;20081;-96
2023/11/25 00:45:26;;;;;;;0.10;0.10;;;;;;;;;;5048373;28;20026;-96
2023/11/25 00:47:53;;;;;;;0.10;0.10;;;;;;;;;;5050768;28;20081;-96
2023/11/25 00:50:19;;;;;;;0.10;0.10;;;;;;;;;;5051435;28;20029;-95
2023/11/25 00:52:45;;;;;;;0.10;0.10;;;;;;;;;;5044662;28;20025;-94
2023/11/25 00:55:11;;;;;;;0.10;0.10;;;;;;;;;;5052350;28;20028;-96
2023/11/25 00:57:38;;;;;;;0.00;0.00;;;;;;;;;;5047226;28;20022;-95
2023/11/25 01:00:04;;;;;;;0.00;0.00;;;;;;;;;;5054653;28;20029;-95
2023/11/25 01:02:30;;;;;;;0.00;0.00;;;;;;;;;;5050776;28;20014;-94
2023/11/25 01:04:56;;;;;;;0.10;0.10;;;;;;;;;;5059688;28;20048;-95
2023/11/25 01:07:22;;;;;;;0.10;0.10;;;;;;;;;;5053582;28;20048;-95
2023/11/25 01:09:49;;;;;;;0.00;0.00;;;;;;;;;;5050413;28;20109;-95
2023/11/25 01:12:15;;;;;;;0.10;0.10;;;;;;;;;;5048420;28;20032;-96
2023/11/25 01:14:41;;;;;;;0.00;0.00;;;;;;;;;;5052003;28;20017;-95
2023/11/25 01:17:08;;;;;;;0.03;0.03;;;;;;;;;;5057244;28;20081;-96
2023/11/25 01:19:34;;;;;;;0.10;0.10;;;;;;;;;;5058701;28;20010;-95
2023/11/25 01:22:01;;;;;;;0.10;0.10;;;;;;;;;;5054864;28;20044;-94
2023/11/25 01:24:27;;;;;;;0.00;0.00;;;;;;;;;;5040181;28;20014;-96
2023/11/25 01:26:53;;;;;;;0.10;0.10;;;;;;;;;;5051949;28;20041;-95
2023/11/25 01:29:19;;;;;;;0.10;0.10;;;;;;;;;;5052375;28;20034;-95
2023/11/25 01:31:45;;;;;;;0.05;0.05;;;;;;;;;;5052309;28;20033;-95
2023/11/25 01:34:11;;;;;;;0.00;0.00;;;;;;;;;;5050891;28;20006;-94
2023/11/25 01:36:37;;;;;;;0.10;0.10;;;;;;;;;;5048878;28;20014;-96
2023/11/25 01:39:05;;;;;;;0.10;0.10;;;;;;;;;;5050107;28;20009;-95
2023/11/25 01:41:31;;;;;;;0.10;0.10;;;;;;;;;;5051168;28;20009;-96
2023/11/25 01:43:57;;;;;;;0.00;0.00;;;;;;;;;;5047301;28;20014;-95
2023/11/25 01:46:37;;;;;;;0.05;0.05;;;1.90;99.90;;;;;;5048637;28;20021;-96
2023/11/25 01:49:05;;;;;;;0.10;0.10;;;1.90;99.90;;;;;;5056238;28;20041;-94
2023/11/25 01:51:32;;;;;;;0.00;0.00;;;1.90;99.90;;;;;;5057632;28;20021;-95
2023/11/25 01:53:59;;;;;;;0.00;0.00;;;1.90;99.90;;;;;;5054106;28;20009;-94
2023/11/25 01:56:28;;;;;;;0.10;0.10;;;2.00;99.90;;;;;;5040871;28;20005;-95
2023/11/25 01:58:54;;;;;;;0.10;0.10;;;;;;;;;;5045658;28;20022;-95
2023/11/25 02:01:20;;;;;;;0.00;0.00;;;;;;;;;;5056602;28;20020;-95
2023/11/25 02:03:46;;;;;;;0.10;0.10;;;;;;;;;;5059873;28;20017;-94
2023/11/25 02:06:12;;;;;;;0.00;0.00;;;;;;;;;;5060106;28;20024;-95
2023/11/25 02:08:38;;;;;;;0.10;0.10;;;;;;;;;;5054428;28;20044;-94
2023/11/25 02:11:04;;;;;;;0.10;0.10;;;;;;;;;;5054345;28;20045;-94
2023/11/25 02:57:31;;;;;;;0.03;0.03;;;2.10;99.90;;;;;;4995588;28;20034;-90
2023/11/25 02:59:59;;;;;;;0.10;0.10;;;;;;;;;;5009855;28;20529;-90
2023/11/25 03:02:25;;;;;;;0.05;0.05;;;;;;;;;;5004937;28;20073;-89
2023/11/25 03:04:51;;;;;;;0.10;0.10;;;;;;;;;;5001528;28;20026;-90
2023/11/25 03:07:18;;;;;;;0.10;0.10;;;;;;;;;;5005812;28;20501;-88
2023/11/25 03:09:44;;;;;;;0.00;0.00;;;;;;;;;;5004874;28;20553;-88
2023/11/25 03:12:13;;;;;;;0.00;0.00;;;2.00;99.90;;;;;;4981417;28;20084;-88
2023/11/25 03:14:39;;;;;;;0.00;0.00;;;;;;;;;;4981368;28;20031;-89
2023/11/25 03:17:05;;;;;;;0.10;0.10;;;;;;;;;;4986221;28;20094;-87
2023/11/25 03:19:30;;;;;;;0.00;0.00;;;;;;;;;;5003554;28;20030;-87
2023/11/25 03:21:56;;;;;;;0.00;0.00;;;;;;;;;;4990469;28;20084;-88
2023/11/25 03:24:24;;;;;;;0.10;0.10;;;2.10;99.90;;;;;;4995376;28;20122;-88
2023/11/25 03:26:50;;;;;;;0.10;0.10;;;;;;;;;;4989491;28;20034;-89
2023/11/25 03:29:18;;;;;;;0.10;0.10;;;;;;;;;;4990239;28;20030;-89
2023/11/25 03:31:44;;;;;;;0.10;0.10;;;;;;;;;;4982059;28;20034;-89
2023/11/25 03:34:10;;;;;;;0.10;0.10;;;2.10;99.90;;;;;;5006908;28;20042;-89
2023/11/25 03:36:36;;;;;;;0.00;0.00;;;;;;;;;;4996332;28;20181;-89
2023/11/25 03:39:04;;;;;;;0.10;0.10;;;;;;;;;;5007642;28;20034;-89
2023/11/25 03:41:30;;;;;;;0.10;0.10;;;;;;;;;;4987698;28;20112;-88
2023/11/25 03:43:56;;;;;;;0.00;0.00;;;;;;;;;;4991806;28;20479;-89
2023/11/25 03:46:23;;;;;;;0.05;0.05;;;;;;;;;;4984139;28;20030;-89
2023/11/25 03:48:50;;;;;;;0.00;0.00;;;;;;;;;;4996003;28;20026;-89
2023/11/25 03:51:16;;;;;;;0.10;0.10;;;;;;;;;;4984608;28;20065;-90
2023/11/25 03:53:41;;;;;;;0.00;0.00;;;;;;;;;;4991463;28;20082;-89
2023/11/25 03:56:08;;;;;;;0.10;0.10;;;;;;;;;;4986514;28;20038;-88
2023/11/25 03:58:33;;;;;;;0.10;0.10;;;;;;;;;;5001788;28;20113;-89
2023/11/25 04:00:59;;;;;;;0.00;0.00;;;;;;;;;;4997826;28;20118;-88
2023/11/25 04:03:25;;;;;;;0.10;0.10;;;;;;;;;;4996459;28;20099;-88
2023/11/25 04:05:52;;;;;;;0.00;0.00;;;;;;;;;;4992334;28;20117;-88
2023/11/25 04:08:18;;;;;;;0.00;0.00;;;;;;;;;;4994867;28;20053;-88
2023/11/25 04:10:44;;;;;;;0.00;0.00;;;;;;;;;;4990896;28;20463;-88
2023/11/25 04:13:10;;;;;;;0.10;0.10;;;;;;;;;;4993117;28;20034;-89
2023/11/25 04:15:35;;;;;;;0.00;0.00;;;2.80;99.90;;;;;;5009183;28;20468;-88
2023/11/25 04:18:01;;;;;;;0.10;0.10;;;;;;;;;;5015528;28;20021;-87
2023/11/25 04:20:33;;;;;;;0.10;0.10;;;;;;;;;;5015214;28;20400;-88
2023/11/25 04:23:05;;;;;;;0.10;0.10;;;;;;;;;;5011267;28;20034;-88
2023/11/25 04:25:31;;;;;;;0.00;0.00;;;;;;;;;;4989588;28;20070;-88
2023/11/25 04:27:57;;;;;;;0.10;0.10;;;;;;;;;;5003818;28;20030;-88
2023/11/25 04:30:23;;;;;;;0.03;0.03;;;;;;;;;;4996004;28;20065;-89
2023/11/25 04:32:49;;;;;;;0.00;0.00;;;2.80;99.90;;;;;;4997932;28;20720;-89
2023/11/25 04:35:15;;;;;;;0.10;0.10;;;;;;;;;;4993355;28;20402;-87
2023/11/25 04:37:45;;;;;;;0.10;0.10;;;2.80;99.90;;;;;;4993261;28;20468;-89
2023/11/25 04:40:12;;;;;;;0.03;0.03;;;2.80;99.90;;;;;;4994081;28;20049;-88
2023/11/25 04:42:39;;;;;;;0.00;0.00;;;2.80;99.90;;;;;;5006261;28;20108;-87
2023/11/25 04:45:06;;;;;;;0.00;0.00;;;2.70;99.90;;;;;;5005137;28;20049;-87
2023/11/25 04:47:32;;;;;;;0.10;0.10;;;2.90;99.90;;;;;;5007340;28;20034;-87
2023/11/25 04:49:58;;;;;;;0.00;0.00;;;;;;;;;;5003852;28;20035;-88
2023/11/25 04:52:24;;;;;;;0.10;0.10;;;;;;;;;;5003433;28;20069;-88
2023/11/25 04:54:50;;;;;;;0.10;0.10;;;;;;;;;;4987906;28;20493;-88
2023/11/25 04:57:16;;;;;;;0.10;0.10;;;;;;;;;;4992367;28;20030;-88
2023/11/25 04:59:42;;;;;;;0.00;0.00;;;;;;;;;;5005682;28;20113;-88
2023/11/25 05:02:08;;;;;;;0.10;0.10;;;;;;;;;;4990995;28;20125;-88
2023/11/25 05:04:34;;;;;;;0.10;0.10;;;;;;;;;;5008948;28;20034;-88
2023/11/25 05:07:00;;;;;;;0.00;0.00;;;;;;;;;;4997499;28;20030;-88
2023/11/25 05:09:26;;;;;;;0.10;0.10;;;2.80;99.90;;;;;;5008401;28;20062;-88
2023/11/25 05:11:54;;;;;;;0.00;0.00;;;2.80;99.90;;;;;;4987056;28;20062;-88
2023/11/25 05:14:20;;;;;;;0.10;0.10;;;;;;;;;;4991931;28;20026;-89
2023/11/25 05:16:50;;;;;;;0.10;0.10;;;;;;;;;;4993762;28;20026;-88
2023/11/25 05:19:16;;;;;;;0.00;0.00;;;;;;;;;;4992300;28;20037;-88
2023/11/25 05:21:42;;;;;;;0.10;0.10;;;;;;;;;;4997440;28;20526;-88
2023/11/25 05:24:08;;;;;;;0.00;0.00;;;;;;;;;;5009085;28;20936;-87
2023/11/25 05:26:34;;;;;;;0.10;0.10;;;;;;;;;;4994759;28;20047;-88
2023/11/25 05:29:00;;;;;;;0.10;0.10;;;;;;;;;;5000830;28;20128;-89
2023/11/25 05:31:26;;;;;;;0.10;0.10;;;;;;;;;;5003844;28;20100;-89
2023/11/25 05:33:52;;;;;;;0.00;0.00;;;;;;;;;;4994021;28;20030;-88
2023/11/25 05:36:18;;;;;;;0.10;0.10;;;;;;;;;;4992957;28;20513;-87
2023/11/25 05:38:44;;;;;;;0.00;0.00;;;;;;;;;;4988956;28;20031;-87
2023/11/25 05:41:13;;;;;;;0.10;0.10;;;;;;;;;;4988585;28;20038;-88
2023/11/25 05:43:40;;;;;;;0.10;0.10;;;;;;;;;;5002995;28;20030;-87
2023/11/25 05:46:05;;;;;;;0.10;0.10;;;;;;;;;;4989168;28;20056;-88
2023/11/25 05:48:32;;;;;;;0.00;0.00;;;;;;;;;;4981205;28;20543;-87
2023/11/25 05:50:58;;;;;;;0.10;0.10;;;;;;;;;;4989786;28;20073;-89
2023/11/25 05:53:24;;;;;;;0.10;0.10;;;;;;;;;;4992193;28;20046;-88
2023/11/25 05:55:50;;;;;;;0.10;0.10;;;;;;;;;;4989801;28;20117;-88
2023/11/25 05:58:16;;;;;;;0.10;0.10;;;;;;;;;;5002372;28;20527;-87
2023/11/25 06:00:42;;;;;;;0.10;0.10;;;;;;;;;;4986981;28;20058;-88
2023/11/25 06:03:08;;;;;;;0.10;0.10;;;;;;;;;;5005125;28;20030;-88
2023/11/25 06:05:34;;;;;;;0.10;0.10;;;;;;;;;;4981008;28;20031;-88
2023/11/25 06:08:00;;;;;;;0.10;0.10;;;;;;;;;;4988993;28;20116;-89
2023/11/25 06:10:25;;;;;;;0.00;0.00;;;2.70;99.90;;;;;;4991289;28;20121;-89
2023/11/25 06:12:51;;;;;;;0.10;0.10;;;2.70;99.90;;;;;;4990521;28;20476;-88
2023/11/25 06:15:18;;;;;;;0.10;0.10;;;2.70;99.90;;;;;;4992332;28;20269;-88
2023/11/25 06:17:45;;;;;;;0.10;0.10;;;;;;;;;;5007219;28;20042;-87
2023/11/25 06:20:11;;;;;;;0.10;0.10;;;2.70;99.90;;;;;;5024231;28;20177;-88
2023/11/25 06:22:38;;;;;;;0.10;0.10;;;;;;;;;;4981080;28;20125;-87
2023/11/25 06:25:05;;;;;;;0.10;0.10;;;;;;;;;;4989321;28;20415;-88
2023/11/25 06:27:31;;;;;;;0.08;0.08;;;;;;;;;;5001648;28;20081;-88
2023/11/25 06:29:58;;;;;;;0.08;0.08;;;;;;;;;;4994828;28;20446;-87
2023/11/25 06:32:27;;;;;;;0.00;0.00;;;;;;;;;;4978901;28;20030;-89
2023/11/25 06:34:53;;;;;;;0.00;0.00;;;;;;;;;;5001898;28;20045;-88
2023/11/25 06:37:18;;;;;;;0.00;0.00;;;2.60;99.90;;;;;;4983892;28;20488;-87
2023/11/25 06:39:44;;;;;;;0.10;0.10;;;;;;;;;;4988920;28;20030;-88
2023/11/25 06:42:10;;;;;;;0.10;0.10;;;;;;;;;;4988712;28;20038;-87
2023/11/25 06:44:36;;;;;;;0.10;0.10;;;;;;;;;;4986096;28;20566;-86
2023/11/25 06:47:03;;;;;;;0.08;0.08;;;;;;;;;;4993700;28;20027;-88
2023/11/25 06:49:28;;;;;;;0.10;0.10;;;;;;;;;;4989177;28;20030;-88
2023/11/25 06:51:54;;;;;;;0.10;0.10;;;;;;;;;;5000460;28;20086;-88
2023/11/25 06:54:22;;;;;;;0.00;0.00;;;;;;;;;;4989204;28;20037;-90
2023/11/25 06:56:48;;;;;;;0.00;0.00;;;;;;;;;;4984899;28;20085;-88
2023/11/25 06:59:14;;;;;;;0.10;0.10;;;;;;;;;;4982256;28;20035;-87
2023/11/25 07:01:40;;;;;;;0.10;0.10;;;;;;;;;;5002336;28;20026;-88
2023/11/25 07:04:07;;;;;;;0.10;0.10;;;;;;;;;;5005698;28;20572;-88
2023/11/25 07:06:33;;;;;;;0.10;0.10;;;;;;;;;;4997897;28;20026;-88
2023/11/25 07:09:03;;;;;;;0.10;0.10;;;;;;;;;;5002178;28;20042;-88
2023/11/25 07:11:34;;;;;;;0.10;0.10;;;;;;;;;;5006478;28;20038;-88
2023/11/25 07:14:00;;;;;;;0.10;0.10;;;;;;;;;;4982071;28;20030;-88
2023/11/25 07:16:26;;;;;;;0.10;0.10;;;;;;;;;;4992440;28;20498;-88
2023/11/25 07:18:52;;;;;;;0.00;0.00;;;;;;;;;;5003046;28;20022;-88
2023/11/25 07:21:19;;;;;;;0.00;0.00;;;;;;;;;;4988468;28;20609;-88
2023/11/25 07:23:45;;;;;;;0.10;0.10;;;;;;;;;;5002773;28;20027;-88
2023/11/25 07:26:14;;;;;;;0.10;0.10;;;3.00;99.90;;;;;;4997151;28;20038;-88
2023/11/25 07:28:42;;;;;;;0.10;0.10;;;3.10;99.90;;;;;;4981330;28;20049;-88
2023/11/25 07:31:09;;;;;;;0.10;0.10;;;;;;;;;;4996382;28;20038;-89
2023/11/25 07:33:35;;;;;;;0.00;0.00;;;;;;;;;;4991782;28;20533;-88
2023/11/25 07:36:01;;;;;;;0.10;0.10;;;;;;;;;;4991109;28;20384;-88
2023/11/25 07:38:28;;;;;;;0.03;0.03;;;;;;;;;;4996438;28;20038;-87
2023/11/25 07:40:54;;;;;;;0.10;0.10;;;;;;;;;;5008183;28;20018;-88
2023/11/25 07:43:20;;;;;;;0.10;0.10;;;;;;;;;;5005774;28;20439;-88
2023/11/25 07:45:46;;;;;;;0.00;0.00;;;;;;;;;;4983489;28;20105;-88
2023/11/25 07:48:12;;;;;;;0.10;0.10;;;;;;;;;;4985592;28;20043;-87
2023/11/25 07:50:40;;;;;;;0.10;0.10;;;;;;;;;;5006783;28;20035;-88
2023/11/25 07:53:07;;;;;;;0.10;0.10;;;;;;;;;;4987651;28;20034;-86
2023/11/25 07:55:33;;;;;;;0.10;0.10;;;;;;;;;;4984762;28;20035;-88
2023/11/25 07:57:58;;;;;;;0.10;0.10;;;3.20;99.90;;;;;;4981793;28;20546;-88
2023/11/25 08:00:27;;;;;;;0.10;0.10;;;3.20;99.90;;;;;;4987948;28;20026;-89
2023/11/25 08:02:56;;;;;;;0.10;0.10;;;;;;;;;;5001450;28;20037;-86
2023/11/25 08:05:28;;;;;;;0.10;0.10;;;3.30;99.90;;;;;;5009763;28;20037;-87
2023/11/25 08:07:54;;;;;;;0.10;0.10;;;;;;;;;;4986006;28;20081;-86
2023/11/25 08:10:22;;;;;;;0.10;0.10;;;3.40;99.90;;;;;;4983486;28;20484;-86
2023/11/25 08:12:49;;;;;;;0.10;0.10;;;;;;;;;;4995988;28;20121;-87
2023/11/25 08:15:15;;;;;;;0.10;0.10;;;;;;;;;;5004958;28;20396;-86
2023/11/25 08:17:42;;;;;;;0.10;0.10;;;;;;;;;;5001284;28;20027;-86
2023/11/25 08:20:10;;;;;;;0.10;0.10;;;3.50;99.90;;;;;;5000752;28;20041;-87
2023/11/25 08:22:38;;;;;;;0.00;0.00;;;3.60;99.90;;;;;;4985069;28;20043;-87
2023/11/25 08:25:07;;;;;;;0.10;0.10;;;3.70;99.90;;;;;;4990964;28;20116;-86
2023/11/25 08:27:37;;;;;;;0.10;0.10;;;3.80;99.90;;;;;;5007852;28;20049;-86
2023/11/25 08:30:07;;;;;;;0.00;0.00;;;3.80;99.90;;;;;;4986362;28;20038;-86
2023/11/25 08:32:32;;;;;;;0.00;0.00;;;3.80;99.90;;;;;;4986703;28;20105;-86
2023/11/25 08:34:59;;;;;;;0.10;0.10;;;;;;;;;;5002130;28;20062;-87
2023/11/25 08:37:27;;;;;;;0.05;0.05;;;;;;;;;;5010066;28;20026;-87
2023/11/25 08:39:53;;;;;;;0.10;0.10;;;;;;;;;;5008498;28;20089;-85
2023/11/25 08:42:19;;;;;;;0.00;0.00;;;;;;;;;;4989587;28;20030;-85
2023/11/25 08:44:46;;;;;;;0.10;0.10;;;;;;;;;;4993570;28;20693;-86
2023/11/25 08:47:12;;;;;;;0.03;0.03;;;;;;;;;;4991995;28;20027;-86
2023/11/25 08:49:37;;;;;;;0.08;0.08;;;3.70;99.90;;;;;;4998812;28;20030;-87
2023/11/25 08:52:03;;;;;;;0.05;0.05;;;;;;;;;;4994889;28;20026;-86
2023/11/25 08:54:36;;;;;;;0.10;0.10;;;3.60;99.90;;;;;;4995568;28;20034;-85
2023/11/25 08:57:02;;;;;;;0.05;0.05;;;;;;;;;;5006671;28;20084;-86
2023/11/25 08:59:28;;;;;;;0.10;0.10;;;3.60;99.90;;;;;;5008817;28;20030;-87
2023/11/25 09:01:54;;;;;;;0.08;0.08;;;3.60;99.90;;;;;;4998145;28;20038;-87
2023/11/25 09:04:22;;;;;;;0.00;0.00;;;;;;;;;;4990786;28;20031;-86
2023/11/25 09:06:48;;;;;;;0.10;0.10;;;;;;;;;;4994300;28;20030;-86
2023/11/25 09:09:16;;;;;;;0.10;0.10;;;3.60;99.90;;;;;;5003517;28;20124;-86
2023/11/25 09:11:43;;;;;;;0.05;0.05;;;3.60;99.90;;;;;;4987239;28;20618;-88
2023/11/25 09:14:09;;;;;;;0.10;0.10;;;;;;;;;;5006131;28;20031;-88
2023/11/25 09:16:35;;;;;;;0.10;0.10;;;;;;;;;;4986886;28;20042;-87
2023/11/25 09:19:02;;;;;;;0.10;0.10;;;;;;;;;;4996305;28;20030;-88
2023/11/25 09:21:28;;;;;;;0.10;0.10;;;;;;;;;;4983950;28;20034;-87
2023/11/25 09:23:57;;;;;;;0.10;0.10;;;;;;;;;;4998226;28;20541;-88
2023/11/25 09:26:24;;;;;;;0.10;0.10;;;3.80;99.90;;;;;;4988304;28;20133;-88
2023/11/25 09:28:50;;;;;;;0.10;0.10;;;;;;;;;;5005914;28;20482;-87
2023/11/25 09:31:16;;;;;;;0.10;0.10;;;;;;;;;;4994396;28;20141;-89
2023/11/25 09:33:42;;;;;;;0.10;0.10;;;4.10;99.90;;;;;;4985042;28;20414;-88
2023/11/25 09:36:09;;;;;;;0.10;0.10;;;;;;;;;;4992617;28;20030;-88
2023/11/25 09:38:35;;;;;;;0.10;0.10;;;;;;;;;;4984053;28;20026;-87
2023/11/25 09:41:01;;;;;;;0.08;0.08;;;;;;;;;;4989461;28;20510;-87
2023/11/25 09:43:29;;;;;;;0.10;0.10;;;;;;;;;;4981024;28;20038;-88
2023/11/25 09:45:55;;;;;;;0.10;0.10;;;;;;;;;;4989012;28;20026;-88
2023/11/25 09:48:21;;;;;;;0.10;0.10;;;;;;;;;;4984901;28;20033;-87
2023/11/25 09:50:51;;;;;;;0.10;0.10;;;4.60;99.90;;;;;;4986239;28;20030;-87
2023/11/25 09:53:31;;;;;;;0.10;0.10;;;4.50;99.90;;;;;;5002491;28;20065;-86
2023/11/25 09:56:07;;;;;;;0.10;0.10;;;4.60;99.90;;;;;;4983942;28;20035;-88
2023/11/25 09:58:37;;;;;;;0.10;0.10;;;4.60;99.90;;;;;;4988237;28;20026;-89
2023/11/25 10:01:11;;;;;;;0.10;0.10;;;4.40;99.90;;;;;;4982420;28;20026;-88
2023/11/25 10:03:42;;;;;;;0.10;0.10;;;4.50;99.90;;;;;;4999620;28;20518;-90
2023/11/25 10:06:08;;;;;;;0.10;0.10;;;;;;;;;;4998652;28;20034;-88
2023/11/25 10:08:35;;;;;;;0.10;0.10;;;;;;;;;;4987496;28;20038;-88
2023/11/25 10:11:05;;;;;;;0.10;0.10;;;4.40;99.90;;;;;;4992896;28;20109;-89
2023/11/25 10:13:38;;;;;;;0.10;0.10;;;4.40;99.90;;;;;;4985283;28;20105;-86
2023/11/25 10:16:05;;;;;;;0.10;0.10;;;4.40;99.90;;;;;;4983979;28;20030;-88
2023/11/25 10:18:31;;;;;;;0.10;0.10;;;;;;;;;;4992690;28;20034;-89
2023/11/25 10:20:58;;;;;;;0.00;0.00;;;4.40;99.90;;;;;;5004942;28;20045;-89
2023/11/25 10:23:27;;;;;;;0.10;0.10;;;4.60;99.90;;;;;;4980769;28;20060;-88
2023/11/25 10:25:54;;;;;;;0.10;0.10;;;4.80;99.90;;;;;;4976458;28;20097;-88
2023/11/25 10:28:26;;;;;;;0.10;0.10;;;4.60;99.90;;;;;;4985940;28;20039;-88
2023/11/25 10:30:55;;;;;;;0.10;0.10;;;4.70;99.90;;;;;;4988645;28;20057;-88
2023/11/25 10:33:24;;;;;;;0.10;0.10;;;4.80;99.90;;;;;;5001861;28;20031;-88
2023/11/25 10:35:51;;;;;;;0.10;0.10;;;;;;;;;;5008586;28;20026;-88
2023/11/25 10:38:21;;;;;;;0.10;0.10;;;5.10;99.90;;;;;;5000020;28;20022;-88
2023/11/25 10:40:50;;;;;;;;;;;5.10;99.90;;;;;;4987712;28;20022;-88
2023/11/25 10:43:19;;;;;;;0.10;0.10;;;5.20;99.90;;;;;;5001087;28;19916;-89
2023/11/25 10:45:46;;;;;;;0.10;0.10;;;5.30;99.90;;;;;;5005988;28;20387;-87
2023/11/25 10:48:12;;;;;;;0.00;0.00;;;;;;;;;;4994236;28;20117;-87
2023/11/25 10:50:41;;;;;;;0.10;0.10;;;5.50;99.90;;;;;;4998942;28;20006;-86
2023/11/25 10:53:14;;;;;;;0.10;0.10;;;5.60;99.90;;;;;;5020539;28;20137;-89
2023/11/25 10:55:42;;;;;;;0.10;0.10;;;5.60;99.90;;;;;;4993960;28;20026;-87
2023/11/25 10:58:09;;;;;;;0.10;0.10;;;;;;;;;;5004346;28;20451;-88
2023/11/25 11:00:35;;;;;;;0.10;0.10;;;;;;;;;;4998897;28;20034;-89
2023/11/25 11:03:05;;;;;;;0.10;0.10;;;5.70;99.90;;;;;;5002064;28;20499;-88
2023/11/25 11:05:45;;;;;;;0.10;0.10;;;5.60;99.90;;;;;;4981939;28;20034;-89
2023/11/25 11:08:21;;;;;;;0.10;0.10;;;5.70;99.90;;;;;;4999011;28;20094;-88
2023/11/25 11:11:03;;;;;;;0.10;0.10;;;5.60;99.90;;;;;;4983690;28;20038;-87
2023/11/25 11:13:33;;;;;;;0.00;0.00;;;5.60;99.90;;;;;;4986502;28;20031;-86
2023/11/25 11:16:16;;;;;;;0.10;0.10;;;5.40;99.90;;;;;;4979781;28;20037;-88
2023/11/25 11:18:42;;;;;;;0.10;0.10;;;5.40;99.90;;;;;;4988318;28;20038;-87
2023/11/25 11:21:09;;;;;;;0.10;0.10;;;;;;;;;;5002311;28;20035;-85
2023/11/25 11:23:37;;;;;;;0.03;0.03;;;5.50;99.90;;;;;;4996001;28;20086;-88
2023/11/25 11:26:23;;;;;;;0.10;0.10;;;5.50;99.90;;;;;;4998901;28;20038;-87
2023/11/25 11:29:08;;;;;;;0.10;0.10;;;5.60;99.90;;;;;;4987528;28;21118;-87
2023/11/25 11:31:36;;;;;;;0.00;0.00;;;;;;;;;;4985101;28;20030;-87
2023/11/25 11:34:02;;;;;;;0.08;0.08;;;;;;;;;;4991895;28;20443;-87
2023/11/25 11:36:31;;;;;;;0.10;0.10;;;5.70;99.90;;;;;;4993636;28;20058;-88
2023/11/25 11:38:57;;;;;;;0.08;0.08;;;;;;;;;;4999733;28;20023;-88
2023/11/25 11:41:24;;;;;;;0.10;0.10;;;5.80;99.90;;;;;;4997729;28;20117;-87
2023/11/25 11:44:03;;;;;;;0.00;0.00;;;5.80;99.90;;;;;;4987957;28;20035;-88
2023/11/25 11:46:31;;;;;;;0.10;0.10;;;5.60;99.90;;;;;;4988207;28;20038;-86
2023/11/25 11:48:58;;;;;;;0.10;0.10;;;5.70;99.90;;;;;;4997999;28;20034;-86
2023/11/25 11:51:24;;;;;;;0.10;0.10;;;;;;;;;;4985573;28;20381;-87
2023/11/25 11:54:21;;;;;;;0.10;0.10;;;5.80;99.90;;;;;;4992670;28;20034;-87
2023/11/25 11:57:13;;;;;;;0.10;0.10;;;5.90;99.90;;;;;;5001880;28;20034;-87
2023/11/25 12:00:15;;;;;;;0.10;0.10;;;5.90;99.90;;;;;;4986570;28;20018;-86
2023/11/25 12:02:42;;;;;;;0.10;0.10;;;5.90;99.90;;;;;;5002428;28;20110;-88
2023/11/25 12:05:14;;;;;;;0.10;0.10;;;5.80;99.90;;;;;;4995657;28;20057;-88
2023/11/25 12:07:39;;;;;;;0.10;0.10;;;5.90;99.90;;;;;;4984559;28;20026;-88
2023/11/25 12:10:06;;;;;;;0.03;0.03;;;6.00;99.90;;;;;;4999842;28;20368;-86
2023/11/25 12:12:34;;;;;;;0.08;0.08;;;;;;;;;;4995240;28;20097;-86
2023/11/25 12:14:59;;;;;;;0.10;0.10;;;6.20;99.90;;;;;;4995298;28;20045;-87
2023/11/25 12:17:40;;;;;;;0.10;0.10;;;6.50;99.90;;;;;;4982946;28;20484;-86
2023/11/25 12:20:09;;;;;;;0.10;0.10;;;;;;;;;;4994992;28;20042;-86
2023/11/25 12:22:35;;;;;;;0.10;0.10;;;;;;;;;;4989692;28;20030;-88
2023/11/25 12:25:00;;;;;;;0.10;0.10;;;6.50;99.90;;;;;;4984377;28;20117;-87
2023/11/25 12:27:28;;;;;;;0.10;0.10;;;6.50;99.90;;;;;;5006687;28;20023;-87
2023/11/25 12:29:54;;;;;;;0.10;0.10;;;;;;;;;;5002819;28;20026;-86
2023/11/25 12:32:20;;;;;;;0.10;0.10;;;;;;;;;;4990397;28;20026;-86
2023/11/25 12:34:46;;;;;;;0.10;0.10;;;;;;;;;;5000450;28;20026;-88
2023/11/25 12:37:13;;;;;;;0.10;0.10;;;6.60;99.90;;;;;;4989859;28;20035;-87
2023/11/25 12:39:39;;;;;;;0.10;0.10;;;;;;;;;;5004063;28;20026;-85
2023/11/25 12:42:05;;;;;;;0.05;0.05;;;;;;;;;;4981332;28;20038;-87
2023/11/25 12:44:50;;;;;;;0.10;0.10;;;6.70;99.90;;;;;;4986011;28;20056;-86
2023/11/25 12:47:16;;;;;;;0.10;0.10;;;6.50;99.90;;;;;;5002676;28;20031;-87
2023/11/25 12:49:42;;;;;;;0.00;0.00;;;;;;;;;;4983794;28;20030;-87
2023/11/25 12:52:19;;;;;;;0.10;0.10;;;6.20;99.90;;;;;;5001225;28;20060;-88
2023/11/25 12:54:45;;;;;;;0.10;0.10;;;6.00;99.90;;;;;;4998952;28;20026;-86
2023/11/25 12:57:12;;;;;;;0.10;0.10;;;;;;;;;;4985252;28;20400;-86
2023/11/25 12:59:38;;;;;;;0.03;0.03;;;;;;;;;;4991152;28;20037;-87
2023/11/25 13:02:07;;;;;;;0.10;0.10;;;6.40;99.90;;;;;;4982499;28;20034;-88
2023/11/25 13:04:33;;;;;;;0.10;0.10;;;6.10;99.90;;;;;;5001315;28;20030;-88
2023/11/25 13:07:02;;;;;;;0.10;0.10;;;;;;;;;;4998508;28;20038;-87
2023/11/25 13:09:30;;;;;;;0.10;0.10;;;6.00;99.90;;;;;;4984857;28;20061;-87
2023/11/25 13:11:56;;;;;;;0.10;0.10;;;;;;;;;;4982843;28;20117;-88
2023/11/25 13:14:22;;;;;;;0.10;0.10;;;;;;;;;;4997389;28;20078;-86
2023/11/25 13:16:48;;;;;;;0.05;0.05;;;;;;;;;;5002168;28;20033;-88
2023/11/25 13:19:14;;;;;;;0.10;0.10;;;;;;;;;;4999038;28;20040;-89
2023/11/25 13:21:41;;;;;;;0.10;0.10;;;;;;;;;;5000851;28;20109;-87
2023/11/25 13:24:07;;;;;;;0.10;0.10;;;;;;;;;;5001231;28;20035;-88
2023/11/25 13:26:34;;;;;;;0.00;0.00;;;;;;;;;;4983471;28;20125;-87
2023/11/25 13:29:01;;;;;;;0.10;0.10;;;5.90;99.90;;;;;;4982977;28;20038;-86
2023/11/25 13:31:27;;;;;;;0.10;0.10;;;;;;;;;;4989458;28;20038;-88
2023/11/25 13:33:54;;;;;;;0.00;0.00;;;;;;;;;;4985465;28;20057;-87
2023/11/25 13:36:21;;;;;;;0.10;0.10;;;;;;;;;;4998847;28;20091;-87
2023/11/25 13:38:47;;;;;;;0.10;0.10;;;;;;;;;;4998779;28;20392;-86
2023/11/25 13:41:13;;;;;;;0.03;0.03;;;;;;;;;;5006417;28;20045;-86
2023/11/25 13:43:39;;;;;;;0.10;0.10;;;;;;;;;;4999979;28;20037;-87
2023/11/25 13:46:04;;;;;;;0.10;0.10;;;6.10;99.90;;;;;;5000926;28;20034;-86
2023/11/25 13:48:30;;;;;;;0.10;0.10;;;6.00;99.90;;;;;;4985969;28;20431;-88
2023/11/25 13:50:56;;;;;;;0.10;0.10;;;5.80;99.90;;;;;;5006375;28;20114;-88
2023/11/25 13:53:21;;;;;;;0.10;0.10;;;5.80;99.90;;;;;;4988710;28;20078;-87
2023/11/25 13:55:48;;;;;;;0.10;0.10;;;5.90;99.90;;;;;;4997189;28;20076;-86
2023/11/25 13:58:17;;;;;;;0.00;0.00;;;6.10;99.90;;;;;;4981342;28;20027;-88
2023/11/25 14:00:44;;;;;;;0.10;0.10;;;;;;;;;;4996057;28;20030;-87
2023/11/25 14:03:10;;;;;;;0.10;0.10;;;;;;;;;;4980157;28;20050;-86
2023/11/25 14:05:42;;;;;;;0.10;0.10;;;5.90;99.90;;;;;;4984418;28;20037;-86
2023/11/25 14:08:09;;;;;;;0.10;0.10;;;5.80;99.90;;;;;;4986443;28;20030;-86
2023/11/25 14:10:37;;;;;;;0.10;0.10;;;6.00;99.90;;;;;;4980977;28;20038;-86
2023/11/25 14:13:07;;;;;;;0.00;0.00;;;6.00;99.90;;;;;;4982692;28;20019;-87
2023/11/25 14:15:33;;;;;;;0.10;0.10;;;;;;;;;;4986938;28;20391;-86
2023/11/25 14:18:00;;;;;;;0.10;0.10;;;5.80;99.90;;;;;;5000630;28;20032;-87
2023/11/25 14:20:27;;;;;;;0.10;0.10;;;;;;;;;;5002830;28;20018;-87
2023/11/25 14:22:53;;;;;;;0.10;0.10;;;;;;;;;;5000331;28;20033;-87
2023/11/25 14:25:19;;;;;;;0.10;0.10;;;;;;;;;;4990394;28;20038;-85
2023/11/25 14:27:47;;;;;;;0.10;0.10;;;5.60;99.90;;;;;;5008347;28;20117;-86
2023/11/25 14:30:17;;;;;;;0.10;0.10;;;5.60;99.90;;;;;;4980226;28;20034;-86
2023/11/25 14:32:44;;;;;;;0.00;0.00;;;;;;;;;;4983614;28;20027;-87
2023/11/25 14:35:11;;;;;;;0.10;0.10;;;;;;;;;;4981972;28;20228;-86
2023/11/25 14:37:38;;;;;;;0.10;0.10;;;;;;;;;;5001009;28;20114;-85
2023/11/25 14:40:06;;;;;;;0.00;0.00;;;5.50;99.90;;;;;;5000792;28;20100;-86
2023/11/25 14:42:34;;;;;;;0.05;0.05;;;;;;;;;;4989121;28;20387;-86
2023/11/25 14:45:00;;;;;;;0.10;0.10;;;;;;;;;;4999306;28;20042;-87
2023/11/25 14:47:26;;;;;;;0.10;0.10;;;;;;;;;;4986594;28;20023;-88
2023/11/25 14:49:52;;;;;;;0.10;0.10;;;;;;;;;;5001082;28;20499;-87